sensor_id;sensor_type;location;lat;lon;timestamp;P1;durP1;ratioP1;P2;durP2;ratioP2
3217;SDS011;1621;49.702;8.618;2023-04-07T00:01:46;11.60;;;9.40;;
3217;SDS011;1621;49.702;8.618;2023-04-07T00:04:12;11.83;;;9.73;;
3217;SDS011;1621;49.702;8.618;2023-04-07T00:06:38;11.77;;;9.53;;
3217;SDS011;1621;49.702;8.618;2023-04-07T00:09:07;12.13;;;9.73;;
3217;SDS011;1621;49.702;8.618;2023-04-07T00:11:33;12.37;;;10.23;;
3217;SDS011;1621;49.702;8.618;2023-04-07T00:14:00;14.13;;;9.57;;
3217;SDS011;1621;49.702;8.618;2023-04-07T00:16:26;12.13;;;9.90;;
3217;SDS011;1621;49.702;8.618;2023-04-07T00:18:54;13.03;;;8.97;;
3217;SDS011;1621;49.702;8.618;2023-04-07T00:21:20;12.10;;;10.00;;
3217;SDS011;1621;49.702;8.618;2023-04-07T00:23:46;10.97;;;9.13;;
3217;SDS011;1621;49.702;8.618;2023-04-07T00:26:13;10.67;;;9.17;;
3217;SDS011;1621;49.702;8.618;2023-04-07T00:28:39;12.30;;;8.90;;
3217;SDS011;1621;49.702;8.618;2023-04-07T00:31:05;11.17;;;9.03;;
3217;SDS011;1621;49.702;8.618;2023-04-07T00:33:32;11.90;;;9.70;;
3217;SDS011;1621;49.702;8.618;2023-04-07T00:35:59;13.50;;;9.30;;
3217;SDS011;1621;49.702;8.618;2023-04-07T00:38:25;11.30;;;9.83;;
3217;SDS011;1621;49.702;8.618;2023-04-07T00:40:55;11.93;;;9.90;;
3217;SDS011;1621;49.702;8.618;2023-04-07T00:43:22;11.40;;;9.27;;
3217;SDS011;1621;49.702;8.618;2023-04-07T00:45:49;11.53;;;9.60;;
3217;SDS011;1621;49.702;8.618;2023-04-07T00:48:15;14.00;;;9.30;;
3217;SDS011;1621;49.702;8.618;2023-04-07T00:50:41;11.00;;;8.80;;
3217;SDS011;1621;49.702;8.618;2023-04-07T00:53:11;11.60;;;9.20;;
3217;SDS011;1621;49.702;8.618;2023-04-07T00:55:37;12.43;;;8.60;;
3217;SDS011;1621;49.702;8.618;2023-04-07T00:58:04;9.90;;;8.17;;
3217;SDS011;1621;49.702;8.618;2023-04-07T01:00:30;12.40;;;9.37;;
3217;SDS011;1621;49.702;8.618;2023-04-07T01:02:58;11.47;;;8.27;;
3217;SDS011;1621;49.702;8.618;2023-04-07T01:05:29;11.07;;;8.50;;
3217;SDS011;1621;49.702;8.618;2023-04-07T01:07:58;10.80;;;8.67;;
3217;SDS011;1621;49.702;8.618;2023-04-07T01:10:31;10.90;;;8.70;;
3217;SDS011;1621;49.702;8.618;2023-04-07T01:13:00;10.97;;;8.43;;
3217;SDS011;1621;49.702;8.618;2023-04-07T01:15:28;12.10;;;8.67;;
3217;SDS011;1621;49.702;8.618;2023-04-07T01:17:57;11.73;;;10.10;;
3217;SDS011;1621;49.702;8.618;2023-04-07T01:20:24;8.60;;;7.40;;
3217;SDS011;1621;49.702;8.618;2023-04-07T01:22:52;10.70;;;9.07;;
3217;SDS011;1621;49.702;8.618;2023-04-07T01:28:07;10.37;;;8.50;;
3217;SDS011;1621;49.702;8.618;2023-04-07T01:30:39;10.20;;;8.40;;
3217;SDS011;1621;49.702;8.618;2023-04-07T01:33:06;12.33;;;8.50;;
3217;SDS011;1621;49.702;8.618;2023-04-07T01:35:35;9.90;;;7.70;;
3217;SDS011;1621;49.702;8.618;2023-04-07T01:38:02;9.73;;;8.60;;
3217;SDS011;1621;49.702;8.618;2023-04-07T01:40:29;12.10;;;9.10;;
3217;SDS011;1621;49.702;8.618;2023-04-07T01:42:55;9.13;;;8.10;;
3217;SDS011;1621;49.702;8.618;2023-04-07T01:45:22;10.73;;;8.63;;
3217;SDS011;1621;49.702;8.618;2023-04-07T01:47:50;9.87;;;8.47;;
3217;SDS011;1621;49.702;8.618;2023-04-07T01:50:18;10.13;;;8.07;;
3217;SDS011;1621;49.702;8.618;2023-04-07T01:52:45;10.63;;;8.20;;
3217;SDS011;1621;49.702;8.618;2023-04-07T01:55:12;10.70;;;8.43;;
3217;SDS011;1621;49.702;8.618;2023-04-07T01:57:38;9.50;;;8.03;;
3217;SDS011;1621;49.702;8.618;2023-04-07T02:00:05;10.90;;;8.43;;
3217;SDS011;1621;49.702;8.618;2023-04-07T02:02:32;10.60;;;7.90;;
3217;SDS011;1621;49.702;8.618;2023-04-07T02:05:02;10.23;;;8.40;;
3217;SDS011;1621;49.702;8.618;2023-04-07T02:07:31;10.27;;;9.17;;
3217;SDS011;1621;49.702;8.618;2023-04-07T02:10:01;9.47;;;7.87;;
3217;SDS011;1621;49.702;8.618;2023-04-07T02:12:28;11.17;;;8.27;;
3217;SDS011;1621;49.702;8.618;2023-04-07T02:14:54;10.07;;;8.20;;
3217;SDS011;1621;49.702;8.618;2023-04-07T02:17:21;10.13;;;8.23;;
3217;SDS011;1621;49.702;8.618;2023-04-07T02:19:48;13.20;;;8.50;;
3217;SDS011;1621;49.702;8.618;2023-04-07T02:22:16;10.10;;;8.10;;
3217;SDS011;1621;49.702;8.618;2023-04-07T02:24:43;10.90;;;8.93;;
3217;SDS011;1621;49.702;8.618;2023-04-07T02:27:10;9.83;;;7.80;;
3217;SDS011;1621;49.702;8.618;2023-04-07T02:29:36;10.47;;;8.30;;
3217;SDS011;1621;49.702;8.618;2023-04-07T02:32:02;11.70;;;8.00;;
3217;SDS011;1621;49.702;8.618;2023-04-07T02:34:29;11.70;;;8.07;;
3217;SDS011;1621;49.702;8.618;2023-04-07T02:36:55;9.60;;;8.07;;
3217;SDS011;1621;49.702;8.618;2023-04-07T02:39:23;9.70;;;7.10;;
3217;SDS011;1621;49.702;8.618;2023-04-07T02:41:49;10.70;;;8.30;;
3217;SDS011;1621;49.702;8.618;2023-04-07T02:44:15;9.63;;;7.57;;
3217;SDS011;1621;49.702;8.618;2023-04-07T02:46:41;12.10;;;9.20;;
3217;SDS011;1621;49.702;8.618;2023-04-07T02:49:08;9.40;;;7.90;;
3217;SDS011;1621;49.702;8.618;2023-04-07T02:51:34;10.97;;;8.90;;
3217;SDS011;1621;49.702;8.618;2023-04-07T02:54:00;10.07;;;8.30;;
3217;SDS011;1621;49.702;8.618;2023-04-07T02:56:28;10.93;;;9.20;;
3217;SDS011;1621;49.702;8.618;2023-04-07T02:58:55;10.10;;;8.03;;
3217;SDS011;1621;49.702;8.618;2023-04-07T03:01:21;11.80;;;9.23;;
3217;SDS011;1621;49.702;8.618;2023-04-07T03:03:47;9.23;;;8.23;;
3217;SDS011;1621;49.702;8.618;2023-04-07T03:06:13;9.40;;;8.10;;
3217;SDS011;1621;49.702;8.618;2023-04-07T03:08:40;10.50;;;8.73;;
3217;SDS011;1621;49.702;8.618;2023-04-07T03:11:06;10.57;;;8.40;;
3217;SDS011;1621;49.702;8.618;2023-04-07T03:13:34;10.03;;;8.10;;
3217;SDS011;1621;49.702;8.618;2023-04-07T03:16:00;10.10;;;8.33;;
3217;SDS011;1621;49.702;8.618;2023-04-07T03:18:27;11.47;;;8.60;;
3217;SDS011;1621;49.702;8.618;2023-04-07T03:20:53;9.60;;;7.70;;
3217;SDS011;1621;49.702;8.618;2023-04-07T03:23:20;9.37;;;7.73;;
3217;SDS011;1621;49.702;8.618;2023-04-07T03:25:48;9.90;;;8.10;;
3217;SDS011;1621;49.702;8.618;2023-04-07T03:28:14;9.90;;;8.37;;
3217;SDS011;1621;49.702;8.618;2023-04-07T03:33:37;10.17;;;8.70;;
3217;SDS011;1621;49.702;8.618;2023-04-07T03:36:03;11.07;;;8.10;;
3217;SDS011;1621;49.702;8.618;2023-04-07T03:38:31;10.37;;;8.40;;
3217;SDS011;1621;49.702;8.618;2023-04-07T03:41:01;10.73;;;8.83;;
3217;SDS011;1621;49.702;8.618;2023-04-07T03:43:27;10.77;;;8.43;;
3217;SDS011;1621;49.702;8.618;2023-04-07T03:45:56;9.50;;;8.10;;
3217;SDS011;1621;49.702;8.618;2023-04-07T03:48:23;10.53;;;8.20;;
3217;SDS011;1621;49.702;8.618;2023-04-07T03:50:50;9.83;;;7.97;;
3217;SDS011;1621;49.702;8.618;2023-04-07T03:53:17;9.40;;;7.90;;
3217;SDS011;1621;49.702;8.618;2023-04-07T03:55:43;9.37;;;8.33;;
3217;SDS011;1621;49.702;8.618;2023-04-07T03:58:10;9.63;;;7.60;;
3217;SDS011;1621;49.702;8.618;2023-04-07T04:00:36;8.90;;;7.80;;
3217;SDS011;1621;49.702;8.618;2023-04-07T04:03:03;10.43;;;8.97;;
3217;SDS011;1621;49.702;8.618;2023-04-07T04:05:29;11.20;;;9.07;;
3217;SDS011;1621;49.702;8.618;2023-04-07T04:07:57;10.47;;;8.30;;
3217;SDS011;1621;49.702;8.618;2023-04-07T04:10:23;10.07;;;8.33;;
3217;SDS011;1621;49.702;8.618;2023-04-07T04:12:50;11.20;;;8.07;;
3217;SDS011;1621;49.702;8.618;2023-04-07T04:15:16;9.53;;;8.27;;
3217;SDS011;1621;49.702;8.618;2023-04-07T04:17:42;10.23;;;8.30;;
3217;SDS011;1621;49.702;8.618;2023-04-07T04:20:09;8.70;;;7.77;;
3217;SDS011;1621;49.702;8.618;2023-04-07T04:22:35;11.20;;;9.23;;
3217;SDS011;1621;49.702;8.618;2023-04-07T04:25:03;9.80;;;7.77;;
3217;SDS011;1621;49.702;8.618;2023-04-07T04:27:29;10.70;;;8.53;;
3217;SDS011;1621;49.702;8.618;2023-04-07T04:29:56;11.23;;;8.67;;
3217;SDS011;1621;49.702;8.618;2023-04-07T04:32:22;9.93;;;8.50;;
3217;SDS011;1621;49.702;8.618;2023-04-07T04:34:48;9.73;;;8.20;;
3217;SDS011;1621;49.702;8.618;2023-04-07T04:37:14;11.30;;;9.07;;
3217;SDS011;1621;49.702;8.618;2023-04-07T04:39:41;10.80;;;9.40;;
3217;SDS011;1621;49.702;8.618;2023-04-07T04:42:08;10.60;;;9.10;;
3217;SDS011;1621;49.702;8.618;2023-04-07T04:44:35;9.63;;;8.63;;
3217;SDS011;1621;49.702;8.618;2023-04-07T04:47:01;11.13;;;8.17;;
3217;SDS011;1621;49.702;8.618;2023-04-07T04:49:27;12.47;;;9.13;;
3217;SDS011;1621;49.702;8.618;2023-04-07T04:51:54;14.87;;;9.37;;
3217;SDS011;1621;49.702;8.618;2023-04-07T04:54:20;9.80;;;8.80;;
3217;SDS011;1621;49.702;8.618;2023-04-07T04:56:46;12.90;;;9.30;;
3217;SDS011;1621;49.702;8.618;2023-04-07T04:59:14;11.50;;;9.37;;
3217;SDS011;1621;49.702;8.618;2023-04-07T05:01:40;10.77;;;9.40;;
3217;SDS011;1621;49.702;8.618;2023-04-07T05:04:07;13.37;;;8.97;;
3217;SDS011;1621;49.702;8.618;2023-04-07T05:06:34;11.77;;;8.93;;
3217;SDS011;1621;49.702;8.618;2023-04-07T05:09:00;10.67;;;8.50;;
3217;SDS011;1621;49.702;8.618;2023-04-07T05:11:28;9.60;;;8.13;;
3217;SDS011;1621;49.702;8.618;2023-04-07T05:13:54;13.30;;;9.30;;
3217;SDS011;1621;49.702;8.618;2023-04-07T05:16:22;11.03;;;8.93;;
3217;SDS011;1621;49.702;8.618;2023-04-07T05:18:48;11.70;;;8.40;;
3217;SDS011;1621;49.702;8.618;2023-04-07T05:21:17;10.80;;;8.70;;
3217;SDS011;1621;49.702;8.618;2023-04-07T05:23:44;11.77;;;8.70;;
3217;SDS011;1621;49.702;8.618;2023-04-07T05:26:10;12.43;;;9.40;;
3217;SDS011;1621;49.702;8.618;2023-04-07T05:28:36;12.37;;;9.67;;
3217;SDS011;1621;49.702;8.618;2023-04-07T05:31:03;11.43;;;8.90;;
3217;SDS011;1621;49.702;8.618;2023-04-07T05:33:30;10.40;;;8.67;;
3217;SDS011;1621;49.702;8.618;2023-04-07T05:35:58;11.37;;;8.67;;
3217;SDS011;1621;49.702;8.618;2023-04-07T05:38:24;10.33;;;8.57;;
3217;SDS011;1621;49.702;8.618;2023-04-07T05:40:50;11.90;;;8.37;;
3217;SDS011;1621;49.702;8.618;2023-04-07T05:43:17;10.20;;;8.63;;
3217;SDS011;1621;49.702;8.618;2023-04-07T05:45:43;11.00;;;8.80;;
3217;SDS011;1621;49.702;8.618;2023-04-07T05:48:09;10.80;;;8.60;;
3217;SDS011;1621;49.702;8.618;2023-04-07T05:50:37;10.60;;;8.80;;
3217;SDS011;1621;49.702;8.618;2023-04-07T05:53:03;10.43;;;8.30;;
3217;SDS011;1621;49.702;8.618;2023-04-07T05:55:30;9.60;;;8.20;;
3217;SDS011;1621;49.702;8.618;2023-04-07T05:57:56;9.37;;;8.37;;
3217;SDS011;1621;49.702;8.618;2023-04-07T06:00:22;11.67;;;8.23;;
3217;SDS011;1621;49.702;8.618;2023-04-07T06:02:49;9.93;;;8.50;;
3217;SDS011;1621;49.702;8.618;2023-04-07T06:05:15;11.40;;;9.00;;
3217;SDS011;1621;49.702;8.618;2023-04-07T06:07:43;10.40;;;8.43;;
3217;SDS011;1621;49.702;8.618;2023-04-07T06:10:09;10.07;;;8.20;;
3217;SDS011;1621;49.702;8.618;2023-04-07T06:12:36;13.53;;;9.23;;
3217;SDS011;1621;49.702;8.618;2023-04-07T06:15:02;12.10;;;9.47;;
3217;SDS011;1621;49.702;8.618;2023-04-07T06:17:28;11.43;;;8.23;;
3217;SDS011;1621;49.702;8.618;2023-04-07T06:19:55;11.63;;;9.13;;
3217;SDS011;1621;49.702;8.618;2023-04-07T06:22:21;10.70;;;8.80;;
3217;SDS011;1621;49.702;8.618;2023-04-07T06:24:49;10.65;;;7.93;;
3217;SDS011;1621;49.702;8.618;2023-04-07T06:27:15;10.40;;;8.20;;
3217;SDS011;1621;49.702;8.618;2023-04-07T06:29:42;12.00;;;8.60;;
3217;SDS011;1621;49.702;8.618;2023-04-07T06:32:08;10.23;;;8.27;;
3217;SDS011;1621;49.702;8.618;2023-04-07T06:34:35;9.50;;;7.80;;
3217;SDS011;1621;49.702;8.618;2023-04-07T06:37:01;9.53;;;8.10;;
3217;SDS011;1621;49.702;8.618;2023-04-07T06:39:29;12.20;;;8.90;;
3217;SDS011;1621;49.702;8.618;2023-04-07T06:41:57;9.83;;;7.47;;
3217;SDS011;1621;49.702;8.618;2023-04-07T06:44:25;9.53;;;8.13;;
3217;SDS011;1621;49.702;8.618;2023-04-07T06:46:52;12.03;;;8.10;;
3217;SDS011;1621;49.702;8.618;2023-04-07T06:49:19;10.53;;;8.60;;
3217;SDS011;1621;49.702;8.618;2023-04-07T06:51:45;9.57;;;8.57;;
3217;SDS011;1621;49.702;8.618;2023-04-07T06:54:15;9.77;;;8.60;;
3217;SDS011;1621;49.702;8.618;2023-04-07T06:56:42;10.67;;;7.70;;
3217;SDS011;1621;49.702;8.618;2023-04-07T06:59:10;9.87;;;8.03;;
3217;SDS011;1621;49.702;8.618;2023-04-07T07:01:37;10.60;;;8.83;;
3217;SDS011;1621;49.702;8.618;2023-04-07T07:04:03;12.43;;;8.40;;
3217;SDS011;1621;49.702;8.618;2023-04-07T07:06:30;11.17;;;9.30;;
3217;SDS011;1621;49.702;8.618;2023-04-07T07:08:56;11.27;;;8.97;;
3217;SDS011;1621;49.702;8.618;2023-04-07T07:11:23;11.70;;;8.97;;
3217;SDS011;1621;49.702;8.618;2023-04-07T07:13:49;12.60;;;9.37;;
3217;SDS011;1621;49.702;8.618;2023-04-07T07:16:17;10.73;;;8.30;;
3217;SDS011;1621;49.702;8.618;2023-04-07T07:18:43;10.50;;;8.87;;
3217;SDS011;1621;49.702;8.618;2023-04-07T07:21:10;13.00;;;9.53;;
3217;SDS011;1621;49.702;8.618;2023-04-07T07:23:36;9.57;;;7.93;;
3217;SDS011;1621;49.702;8.618;2023-04-07T07:26:03;12.30;;;8.73;;
3217;SDS011;1621;49.702;8.618;2023-04-07T07:28:29;10.37;;;8.90;;
3217;SDS011;1621;49.702;8.618;2023-04-07T07:30:55;13.00;;;9.83;;
3217;SDS011;1621;49.702;8.618;2023-04-07T07:33:33;11.63;;;9.33;;
3217;SDS011;1621;49.702;8.618;2023-04-07T07:36:00;12.40;;;9.57;;
3217;SDS011;1621;49.702;8.618;2023-04-07T07:38:26;12.60;;;10.17;;
3217;SDS011;1621;49.702;8.618;2023-04-07T07:40:52;14.10;;;10.50;;
3217;SDS011;1621;49.702;8.618;2023-04-07T07:43:19;10.60;;;8.20;;
3217;SDS011;1621;49.702;8.618;2023-04-07T07:45:45;10.97;;;9.70;;
3217;SDS011;1621;49.702;8.618;2023-04-07T07:48:11;14.57;;;9.73;;
3217;SDS011;1621;49.702;8.618;2023-04-07T07:50:39;11.37;;;8.77;;
3217;SDS011;1621;49.702;8.618;2023-04-07T07:53:08;12.00;;;9.20;;
3217;SDS011;1621;49.702;8.618;2023-04-07T07:55:35;11.23;;;8.20;;
3217;SDS011;1621;49.702;8.618;2023-04-07T07:58:01;12.17;;;8.43;;
3217;SDS011;1621;49.702;8.618;2023-04-07T08:00:27;15.20;;;9.63;;
3217;SDS011;1621;49.702;8.618;2023-04-07T08:02:54;9.87;;;8.53;;
3217;SDS011;1621;49.702;8.618;2023-04-07T08:05:20;16.57;;;9.40;;
3217;SDS011;1621;49.702;8.618;2023-04-07T08:07:48;13.27;;;9.50;;
3217;SDS011;1621;49.702;8.618;2023-04-07T08:10:14;13.33;;;9.40;;
3217;SDS011;1621;49.702;8.618;2023-04-07T08:12:41;11.90;;;9.33;;
3217;SDS011;1621;49.702;8.618;2023-04-07T08:15:07;12.90;;;10.00;;
3217;SDS011;1621;49.702;8.618;2023-04-07T08:17:34;15.53;;;10.63;;
3217;SDS011;1621;49.702;8.618;2023-04-07T08:20:00;15.77;;;11.40;;
3217;SDS011;1621;49.702;8.618;2023-04-07T08:22:27;13.50;;;11.00;;
3217;SDS011;1621;49.702;8.618;2023-04-07T08:24:55;14.40;;;10.07;;
3217;SDS011;1621;49.702;8.618;2023-04-07T08:27:21;12.97;;;10.07;;
3217;SDS011;1621;49.702;8.618;2023-04-07T08:29:50;12.53;;;10.30;;
3217;SDS011;1621;49.702;8.618;2023-04-07T08:32:23;12.30;;;9.70;;
3217;SDS011;1621;49.702;8.618;2023-04-07T08:34:49;14.60;;;10.57;;
3217;SDS011;1621;49.702;8.618;2023-04-07T08:37:15;13.17;;;10.10;;
3217;SDS011;1621;49.702;8.618;2023-04-07T08:39:42;13.97;;;10.13;;
3217;SDS011;1621;49.702;8.618;2023-04-07T08:42:09;14.10;;;9.87;;
3217;SDS011;1621;49.702;8.618;2023-04-07T08:44:38;12.00;;;9.40;;
3217;SDS011;1621;49.702;8.618;2023-04-07T08:47:04;12.57;;;9.47;;
3217;SDS011;1621;49.702;8.618;2023-04-07T08:49:32;13.10;;;9.03;;
3217;SDS011;1621;49.702;8.618;2023-04-07T08:52:02;12.73;;;9.90;;
3217;SDS011;1621;49.702;8.618;2023-04-07T08:54:34;12.20;;;9.80;;
3217;SDS011;1621;49.702;8.618;2023-04-07T08:57:00;14.40;;;10.20;;
3217;SDS011;1621;49.702;8.618;2023-04-07T08:59:29;14.40;;;10.00;;
3217;SDS011;1621;49.702;8.618;2023-04-07T09:01:57;12.80;;;9.30;;
3217;SDS011;1621;49.702;8.618;2023-04-07T09:04:24;14.07;;;10.53;;
3217;SDS011;1621;49.702;8.618;2023-04-07T09:06:51;14.10;;;10.37;;
3217;SDS011;1621;49.702;8.618;2023-04-07T09:09:18;14.27;;;9.80;;
3217;SDS011;1621;49.702;8.618;2023-04-07T09:11:44;12.63;;;9.60;;
3217;SDS011;1621;49.702;8.618;2023-04-07T09:14:10;13.10;;;9.20;;
3217;SDS011;1621;49.702;8.618;2023-04-07T09:16:39;12.63;;;8.93;;
3217;SDS011;1621;49.702;8.618;2023-04-07T09:19:05;10.30;;;8.80;;
3217;SDS011;1621;49.702;8.618;2023-04-07T09:21:45;12.00;;;9.27;;
3217;SDS011;1621;49.702;8.618;2023-04-07T09:24:19;13.27;;;9.70;;
3217;SDS011;1621;49.702;8.618;2023-04-07T09:26:45;11.43;;;9.57;;
3217;SDS011;1621;49.702;8.618;2023-04-07T09:29:14;10.93;;;9.50;;
3217;SDS011;1621;49.702;8.618;2023-04-07T09:31:45;12.43;;;9.50;;
3217;SDS011;1621;49.702;8.618;2023-04-07T09:34:22;11.70;;;9.40;;
3217;SDS011;1621;49.702;8.618;2023-04-07T09:36:48;16.10;;;10.60;;
3217;SDS011;1621;49.702;8.618;2023-04-07T09:39:15;11.60;;;9.23;;
3217;SDS011;1621;49.702;8.618;2023-04-07T09:41:41;15.50;;;10.50;;
3217;SDS011;1621;49.702;8.618;2023-04-07T09:44:07;11.97;;;10.30;;
3217;SDS011;1621;49.702;8.618;2023-04-07T09:46:35;10.47;;;8.53;;
3217;SDS011;1621;49.702;8.618;2023-04-07T09:49:03;14.47;;;9.33;;
3217;SDS011;1621;49.702;8.618;2023-04-07T09:51:30;18.43;;;10.07;;
3217;SDS011;1621;49.702;8.618;2023-04-07T09:53:57;11.40;;;9.17;;
3217;SDS011;1621;49.702;8.618;2023-04-07T09:56:24;12.50;;;10.13;;
3217;SDS011;1621;49.702;8.618;2023-04-07T09:58:52;12.17;;;9.83;;
3217;SDS011;1621;49.702;8.618;2023-04-07T10:01:19;12.20;;;9.27;;
3217;SDS011;1621;49.702;8.618;2023-04-07T10:03:47;9.60;;;8.60;;
3217;SDS011;1621;49.702;8.618;2023-04-07T10:06:16;11.17;;;8.47;;
3217;SDS011;1621;49.702;8.618;2023-04-07T10:08:42;10.30;;;8.40;;
3217;SDS011;1621;49.702;8.618;2023-04-07T10:11:09;11.00;;;7.50;;
3217;SDS011;1621;49.702;8.618;2023-04-07T10:13:36;9.73;;;7.60;;
3217;SDS011;1621;49.702;8.618;2023-04-07T10:16:03;8.60;;;6.90;;
3217;SDS011;1621;49.702;8.618;2023-04-07T10:18:30;12.60;;;7.60;;
3217;SDS011;1621;49.702;8.618;2023-04-07T10:20:56;8.70;;;7.03;;
3217;SDS011;1621;49.702;8.618;2023-04-07T10:23:31;17.23;;;7.30;;
3217;SDS011;1621;49.702;8.618;2023-04-07T10:25:58;9.00;;;7.30;;
3217;SDS011;1621;49.702;8.618;2023-04-07T10:28:26;8.30;;;6.90;;
3217;SDS011;1621;49.702;8.618;2023-04-07T10:30:53;9.57;;;8.00;;
3217;SDS011;1621;49.702;8.618;2023-04-07T10:36:04;21.83;;;8.17;;
3217;SDS011;1621;49.702;8.618;2023-04-07T10:38:32;9.53;;;7.57;;
3217;SDS011;1621;49.702;8.618;2023-04-07T10:40:58;11.03;;;8.77;;
3217;SDS011;1621;49.702;8.618;2023-04-07T10:43:38;8.73;;;7.47;;
3217;SDS011;1621;49.702;8.618;2023-04-07T10:46:05;8.40;;;7.10;;
3217;SDS011;1621;49.702;8.618;2023-04-07T10:48:32;9.80;;;6.67;;
3217;SDS011;1621;49.702;8.618;2023-04-07T10:51:14;8.10;;;6.93;;
3217;SDS011;1621;49.702;8.618;2023-04-07T10:56:27;8.63;;;7.23;;
3217;SDS011;1621;49.702;8.618;2023-04-07T10:59:14;8.53;;;6.80;;
3217;SDS011;1621;49.702;8.618;2023-04-07T11:01:41;8.30;;;6.40;;
3217;SDS011;1621;49.702;8.618;2023-04-07T11:04:07;7.93;;;7.03;;
3217;SDS011;1621;49.702;8.618;2023-04-07T11:06:34;12.67;;;7.40;;
3217;SDS011;1621;49.702;8.618;2023-04-07T11:09:01;8.90;;;7.20;;
3217;SDS011;1621;49.702;8.618;2023-04-07T11:11:36;9.77;;;7.23;;
3217;SDS011;1621;49.702;8.618;2023-04-07T11:14:05;12.70;;;6.90;;
3217;SDS011;1621;49.702;8.618;2023-04-07T11:16:38;7.77;;;6.83;;
3217;SDS011;1621;49.702;8.618;2023-04-07T11:19:05;9.77;;;7.70;;
3217;SDS011;1621;49.702;8.618;2023-04-07T11:21:31;8.40;;;7.23;;
3217;SDS011;1621;49.702;8.618;2023-04-07T11:23:58;10.53;;;7.67;;
3217;SDS011;1621;49.702;8.618;2023-04-07T11:26:24;9.13;;;6.97;;
3217;SDS011;1621;49.702;8.618;2023-04-07T11:28:53;9.67;;;6.30;;
3217;SDS011;1621;49.702;8.618;2023-04-07T11:31:23;6.70;;;5.90;;
3217;SDS011;1621;49.702;8.618;2023-04-07T11:33:53;8.60;;;6.87;;
3217;SDS011;1621;49.702;8.618;2023-04-07T11:36:26;7.30;;;6.43;;
3217;SDS011;1621;49.702;8.618;2023-04-07T11:38:53;9.40;;;7.40;;
3217;SDS011;1621;49.702;8.618;2023-04-07T11:41:20;8.50;;;7.17;;
3217;SDS011;1621;49.702;8.618;2023-04-07T11:43:46;10.20;;;7.93;;
3217;SDS011;1621;49.702;8.618;2023-04-07T11:46:14;10.87;;;7.30;;
3217;SDS011;1621;49.702;8.618;2023-04-07T11:48:41;26.20;;;21.90;;
3217;SDS011;1621;49.702;8.618;2023-04-07T11:51:14;10.03;;;8.87;;
3217;SDS011;1621;49.702;8.618;2023-04-07T11:53:40;8.87;;;7.97;;
3217;SDS011;1621;49.702;8.618;2023-04-07T11:56:07;7.90;;;6.87;;
3217;SDS011;1621;49.702;8.618;2023-04-07T11:58:34;10.30;;;7.70;;
3217;SDS011;1621;49.702;8.618;2023-04-07T12:01:01;8.60;;;7.70;;
3217;SDS011;1621;49.702;8.618;2023-04-07T12:03:34;12.60;;;10.33;;
3217;SDS011;1621;49.702;8.618;2023-04-07T12:06:01;9.50;;;7.80;;
3217;SDS011;1621;49.702;8.618;2023-04-07T12:08:38;11.10;;;9.13;;
3217;SDS011;1621;49.702;8.618;2023-04-07T12:11:04;12.00;;;9.43;;
3217;SDS011;1621;49.702;8.618;2023-04-07T12:13:31;8.67;;;7.77;;
3217;SDS011;1621;49.702;8.618;2023-04-07T12:15:58;10.57;;;8.70;;
3217;SDS011;1621;49.702;8.618;2023-04-07T12:18:24;10.27;;;8.20;;
3217;SDS011;1621;49.702;8.618;2023-04-07T12:20:52;9.70;;;8.23;;
3217;SDS011;1621;49.702;8.618;2023-04-07T12:23:18;10.17;;;8.73;;
3217;SDS011;1621;49.702;8.618;2023-04-07T12:25:45;10.80;;;8.23;;
3217;SDS011;1621;49.702;8.618;2023-04-07T12:28:11;9.60;;;8.17;;
3217;SDS011;1621;49.702;8.618;2023-04-07T12:30:38;9.93;;;7.40;;
3217;SDS011;1621;49.702;8.618;2023-04-07T12:33:04;10.83;;;8.10;;
3217;SDS011;1621;49.702;8.618;2023-04-07T12:35:31;10.30;;;9.00;;
3217;SDS011;1621;49.702;8.618;2023-04-07T12:37:58;11.63;;;8.83;;
3217;SDS011;1621;49.702;8.618;2023-04-07T12:40:25;9.00;;;7.77;;
3217;SDS011;1621;49.702;8.618;2023-04-07T12:42:51;9.70;;;7.67;;
3217;SDS011;1621;49.702;8.618;2023-04-07T12:45:17;9.13;;;7.60;;
3217;SDS011;1621;49.702;8.618;2023-04-07T12:47:44;10.10;;;8.30;;
3217;SDS011;1621;49.702;8.618;2023-04-07T12:50:10;10.47;;;8.00;;
3217;SDS011;1621;49.702;8.618;2023-04-07T12:52:37;9.37;;;7.23;;
3217;SDS011;1621;49.702;8.618;2023-04-07T12:55:04;9.93;;;8.23;;
3217;SDS011;1621;49.702;8.618;2023-04-07T12:57:31;8.37;;;6.60;;
3217;SDS011;1621;49.702;8.618;2023-04-07T12:59:57;8.00;;;6.60;;
3217;SDS011;1621;49.702;8.618;2023-04-07T13:02:24;8.60;;;6.93;;
3217;SDS011;1621;49.702;8.618;2023-04-07T13:04:50;8.60;;;7.13;;
3217;SDS011;1621;49.702;8.618;2023-04-07T13:07:17;7.50;;;6.50;;
3217;SDS011;1621;49.702;8.618;2023-04-07T13:09:43;8.97;;;7.53;;
3217;SDS011;1621;49.702;8.618;2023-04-07T13:12:11;10.90;;;8.20;;
3217;SDS011;1621;49.702;8.618;2023-04-07T13:14:37;9.57;;;8.00;;
3217;SDS011;1621;49.702;8.618;2023-04-07T13:17:04;9.07;;;7.40;;
3217;SDS011;1621;49.702;8.618;2023-04-07T13:19:30;8.13;;;6.37;;
3217;SDS011;1621;49.702;8.618;2023-04-07T13:21:56;8.80;;;7.27;;
3217;SDS011;1621;49.702;8.618;2023-04-07T13:24:23;10.07;;;7.60;;
3217;SDS011;1621;49.702;8.618;2023-04-07T13:26:50;9.70;;;7.27;;
3217;SDS011;1621;49.702;8.618;2023-04-07T13:29:18;8.97;;;7.70;;
3217;SDS011;1621;49.702;8.618;2023-04-07T13:31:44;8.60;;;6.97;;
3217;SDS011;1621;49.702;8.618;2023-04-07T13:34:10;6.67;;;5.97;;
3217;SDS011;1621;49.702;8.618;2023-04-07T13:36:37;7.77;;;6.70;;
3217;SDS011;1621;49.702;8.618;2023-04-07T13:39:03;7.23;;;5.87;;
3217;SDS011;1621;49.702;8.618;2023-04-07T13:41:29;6.80;;;5.60;;
3217;SDS011;1621;49.702;8.618;2023-04-07T13:43:56;6.33;;;5.13;;
3217;SDS011;1621;49.702;8.618;2023-04-07T13:46:24;6.40;;;5.53;;
3217;SDS011;1621;49.702;8.618;2023-04-07T13:48:51;5.13;;;4.20;;
3217;SDS011;1621;49.702;8.618;2023-04-07T13:51:17;5.97;;;4.70;;
3217;SDS011;1621;49.702;8.618;2023-04-07T13:53:44;5.50;;;4.40;;
3217;SDS011;1621;49.702;8.618;2023-04-07T13:56:13;5.17;;;4.10;;
3217;SDS011;1621;49.702;8.618;2023-04-07T13:58:39;6.43;;;5.67;;
3217;SDS011;1621;49.702;8.618;2023-04-07T14:01:06;5.60;;;3.70;;
3217;SDS011;1621;49.702;8.618;2023-04-07T14:03:33;4.83;;;3.70;;
3217;SDS011;1621;49.702;8.618;2023-04-07T14:06:00;5.83;;;4.53;;
3217;SDS011;1621;49.702;8.618;2023-04-07T14:08:27;7.07;;;4.47;;
3217;SDS011;1621;49.702;8.618;2023-04-07T14:10:53;6.80;;;5.67;;
3217;SDS011;1621;49.702;8.618;2023-04-07T14:13:20;6.73;;;4.73;;
3217;SDS011;1621;49.702;8.618;2023-04-07T14:15:46;5.80;;;4.73;;
3217;SDS011;1621;49.702;8.618;2023-04-07T14:18:12;6.30;;;4.90;;
3217;SDS011;1621;49.702;8.618;2023-04-07T14:20:40;7.90;;;5.43;;
3217;SDS011;1621;49.702;8.618;2023-04-07T14:23:06;6.73;;;4.90;;
3217;SDS011;1621;49.702;8.618;2023-04-07T14:25:32;6.93;;;4.40;;
3217;SDS011;1621;49.702;8.618;2023-04-07T14:27:59;5.93;;;4.30;;
3217;SDS011;1621;49.702;8.618;2023-04-07T14:30:25;5.60;;;4.70;;
3217;SDS011;1621;49.702;8.618;2023-04-07T14:32:51;6.00;;;4.77;;
3217;SDS011;1621;49.702;8.618;2023-04-07T14:35:18;8.30;;;6.50;;
3217;SDS011;1621;49.702;8.618;2023-04-07T14:37:46;6.00;;;5.00;;
3217;SDS011;1621;49.702;8.618;2023-04-07T14:40:12;5.10;;;4.20;;
3217;SDS011;1621;49.702;8.618;2023-04-07T14:42:38;6.03;;;4.87;;
3217;SDS011;1621;49.702;8.618;2023-04-07T14:45:05;7.20;;;4.80;;
3217;SDS011;1621;49.702;8.618;2023-04-07T14:47:32;6.50;;;5.30;;
3217;SDS011;1621;49.702;8.618;2023-04-07T14:49:58;7.40;;;4.77;;
3217;SDS011;1621;49.702;8.618;2023-04-07T14:52:24;6.37;;;4.97;;
3217;SDS011;1621;49.702;8.618;2023-04-07T14:54:52;6.23;;;5.30;;
3217;SDS011;1621;49.702;8.618;2023-04-07T14:57:18;6.10;;;5.00;;
3217;SDS011;1621;49.702;8.618;2023-04-07T14:59:46;6.13;;;5.40;;
3217;SDS011;1621;49.702;8.618;2023-04-07T15:02:12;5.90;;;4.90;;
3217;SDS011;1621;49.702;8.618;2023-04-07T15:04:38;6.90;;;4.90;;
3217;SDS011;1621;49.702;8.618;2023-04-07T15:07:05;6.03;;;4.27;;
3217;SDS011;1621;49.702;8.618;2023-04-07T15:09:31;11.73;;;4.23;;
3217;SDS011;1621;49.702;8.618;2023-04-07T15:11:59;4.30;;;3.33;;
3217;SDS011;1621;49.702;8.618;2023-04-07T15:14:29;4.90;;;3.80;;
3217;SDS011;1621;49.702;8.618;2023-04-07T15:16:55;3.73;;;3.00;;